createdAt,value
2022-10-11T00:02:05.153Z,98923.23
2022-10-11T00:04:31.898Z,98918.16
2022-10-11T00:06:58.640Z,98919.65
2022-10-11T00:09:25.385Z,98918.10
2022-10-11T00:11:55.801Z,98919.80
2022-10-11T00:14:24.081Z,98917.77
2022-10-11T00:16:50.866Z,98921.20
2022-10-11T00:19:18.051Z,98926.10
2022-10-11T00:21:46.037Z,98924.78
2022-10-11T00:24:13.729Z,98928.44
2022-10-11T00:26:45.703Z,98923.71
2022-10-11T00:29:13.627Z,98924.05
2022-10-11T00:31:40.621Z,98929.09
2022-10-11T00:34:08.458Z,98925.59
2022-10-11T00:36:35.309Z,98926.34
2022-10-11T00:39:02.349Z,98926.77
2022-10-11T00:41:29.106Z,98926.02
2022-10-11T00:44:20.004Z,98924.29
2022-10-11T00:46:56.030Z,98925.36
2022-10-11T00:49:34.322Z,98921.64
2022-10-11T00:52:07.622Z,98920.17
2022-10-11T00:54:38.044Z,98921.67
2022-10-11T00:57:10.427Z,98929.96
2022-10-11T00:59:41.665Z,98926.47
2022-10-11T01:02:11.637Z,98927.04
2022-10-11T01:04:39.522Z,98928.92
2022-10-11T01:07:06.257Z,98927.16
2022-10-11T01:09:33.921Z,98928.52
2022-10-11T01:12:03.852Z,98924.25
2022-10-11T01:14:43.440Z,98927.73
2022-10-11T01:17:29.999Z,98926.54
2022-10-11T01:20:22.509Z,98927.84
2022-10-11T01:23:11.717Z,98923.19
2022-10-11T01:25:54.330Z,98924.61
2022-10-11T01:28:38.225Z,98920.03
2022-10-11T01:31:27.171Z,98923.91
2022-10-11T01:34:09.292Z,98924.42
2022-10-11T01:36:42.732Z,98921.64
2022-10-11T01:39:13.588Z,98922.36
2022-10-11T01:41:46.240Z,98921.92
2022-10-11T01:44:13.821Z,98923.97
2022-10-11T01:46:41.025Z,98925.61
2022-10-11T01:49:07.911Z,98926.65
2022-10-11T01:51:38.227Z,98926.35
2022-10-11T01:54:12.056Z,98924.16
2022-10-11T01:56:56.790Z,98925.98
2022-10-11T01:59:46.758Z,98925.56
2022-10-11T02:02:16.298Z,98923.11
2022-10-11T02:04:52.958Z,98925.25
2022-10-11T02:07:37.529Z,98926.86
2022-10-11T02:10:04.452Z,98928.41
2022-10-11T02:12:38.076Z,98926.05
2022-10-11T02:15:09.438Z,98923.52
2022-10-11T02:17:43.836Z,98924.48
2022-10-11T02:20:14.573Z,98924.73
2022-10-11T02:22:45.588Z,98921.38
2022-10-11T02:25:19.923Z,98922.73
2022-10-11T02:27:48.805Z,98922.16
2022-10-11T02:30:16.720Z,98924.91
2022-10-11T02:32:46.598Z,98921.30
2022-10-11T02:35:14.120Z,98916.98
2022-10-11T02:37:51.737Z,98916.27
2022-10-11T02:40:19.042Z,98918.23
2022-10-11T02:42:53.834Z,98920.90
2022-10-11T02:45:27.742Z,98920.58
2022-10-11T02:47:55.097Z,98920.30
2022-10-11T02:50:22.828Z,98922.85
2022-10-11T02:52:49.685Z,98923.23
2022-10-11T02:55:16.638Z,98922.02
2022-10-11T02:57:44.193Z,98923.20
2022-10-11T03:00:11.769Z,98929.58
2022-10-11T03:02:38.477Z,98929.48
2022-10-11T03:05:05.636Z,98929.26
2022-10-11T03:07:32.393Z,98929.40
2022-10-11T03:09:59.119Z,98932.70
2022-10-11T03:12:25.943Z,98929.41
2022-10-11T03:14:53.214Z,98933.27
2022-10-11T03:17:35.490Z,98933.34
2022-10-11T03:20:02.737Z,98938.09
2022-10-11T03:22:29.549Z,98940.39
2022-10-11T03:25:00.962Z,98941.94
2022-10-11T03:27:30.364Z,98947.20
2022-10-11T03:29:57.985Z,98945.98
2022-10-11T03:32:25.230Z,98945.95
2022-10-11T03:34:51.954Z,98944.39
2022-10-11T03:37:19.045Z,98952.03
2022-10-11T03:39:46.048Z,98954.52
2022-10-11T03:42:13.758Z,98956.02
2022-10-11T03:44:42.168Z,98957.14
2022-10-11T03:47:09.601Z,98963.19
2022-10-11T03:49:41.199Z,98962.15
2022-10-11T03:52:11.320Z,98964.80
2022-10-11T03:54:38.091Z,98965.62
2022-10-11T03:57:04.873Z,98969.48
2022-10-11T03:59:31.691Z,98970.36
2022-10-11T04:01:58.524Z,98976.16
2022-10-11T04:04:25.305Z,98974.05
2022-10-11T04:07:17.408Z,98968.26
2022-10-11T05:45:57.727Z,99032.44
2022-10-11T05:51:20.392Z,99039.83
2022-10-11T05:53:47.505Z,99037.85
2022-10-11T05:56:24.900Z,99048.14
2022-10-11T05:58:58.677Z,99065.35
2022-10-11T06:02:39.046Z,99068.81
2022-10-11T06:05:21.043Z,99081.27
2022-10-11T06:12:29.179Z,99092.23
2022-10-11T06:15:13.304Z,99097.61
2022-10-11T06:34:38.848Z,99132.30
2022-10-11T06:40:33.536Z,99140.31
2022-10-11T06:47:09.695Z,99141.52
2022-10-11T06:50:40.659Z,99139.36
2022-10-11T06:54:14.374Z,99139.67
2022-10-11T06:56:32.488Z,99142.43
2022-10-11T06:59:21.940Z,99146.66
2022-10-11T07:02:42.541Z,99139.63
2022-10-11T07:05:25.297Z,99140.02
2022-10-11T07:07:57.097Z,99133.66
2022-10-11T07:18:58.755Z,99142.64
2022-10-11T07:22:44.967Z,99150.67
2022-10-11T07:50:53.095Z,99179.61
2022-10-11T07:53:23.468Z,99183.46
2022-10-11T07:55:50.707Z,99184.26
2022-10-11T07:58:17.792Z,99187.00
2022-10-11T08:02:31.973Z,99184.21
2022-10-11T08:03:54.654Z,99179.83
2022-10-11T08:06:30.884Z,99181.78
2022-10-11T08:09:10.660Z,99190.10
2022-10-11T08:11:38.474Z,99190.17
2022-10-11T08:14:28.432Z,99181.27
2022-10-11T08:16:56.145Z,99193.73
2022-10-11T08:19:23.200Z,99201.41
2022-10-11T08:21:50.077Z,99199.30
2022-10-11T08:24:21.530Z,99197.42
2022-10-11T08:26:49.255Z,99199.55
2022-10-11T08:29:16.792Z,99206.83
2022-10-11T08:31:44.937Z,99209.31
2022-10-11T08:34:13.402Z,99209.14
2022-10-11T08:36:43.564Z,99209.19
2022-10-11T08:41:23.722Z,99217.23
2022-10-11T08:42:39.538Z,99220.05
2022-10-11T08:45:19.389Z,99207.52
2022-10-11T08:47:47.609Z,99215.39
2022-10-11T08:50:23.893Z,99218.30
2022-10-11T08:53:07.825Z,99215.40
2022-10-11T08:56:03.851Z,99227.10
2022-10-11T08:58:59.386Z,99221.54
2022-10-11T09:01:54.712Z,99220.33
2022-10-11T09:04:22.043Z,99225.48
2022-10-11T09:07:08.225Z,99223.65
2022-10-11T09:10:03.231Z,99221.82
2022-10-11T09:12:51.272Z,99234.39
2022-10-11T09:15:41.065Z,99231.04
2022-10-11T09:18:42.050Z,99242.83
2022-10-11T09:25:25.271Z,99250.57
2022-10-11T09:29:18.275Z,99245.48
2022-10-11T09:31:23.153Z,99252.17
2022-10-11T09:34:21.831Z,99248.29
2022-10-11T09:36:59.621Z,99257.65
2022-10-11T09:39:56.392Z,99254.48
2022-10-11T09:42:44.870Z,99252.96
2022-10-11T09:45:35.564Z,99259.98
2022-10-11T09:48:44.545Z,99262.22
2022-10-11T09:51:28.540Z,99264.27
2022-10-11T09:54:44.497Z,99270.07
2022-10-11T09:58:04.149Z,99270.23
2022-10-11T10:00:33.944Z,99279.25
2022-10-11T10:03:07.215Z,99272.95
2022-10-11T10:05:40.178Z,99281.58
2022-10-11T10:08:27.061Z,99279.94
2022-10-11T10:11:01.776Z,99290.59
2022-10-11T10:13:55.135Z,99295.69
2022-10-11T10:16:30.664Z,99283.64
2022-10-11T10:19:24.009Z,99299.10
2022-10-11T10:21:56.783Z,99289.17
2022-10-11T10:24:50.590Z,99291.84
2022-10-11T10:27:31.060Z,99297.30
2022-10-11T10:33:44.372Z,99293.75
2022-10-11T10:36:21.009Z,99296.95
2022-10-11T10:39:07.723Z,99299.56
2022-10-11T10:41:38.312Z,99303.38
2022-10-11T10:44:05.994Z,99309.15
2022-10-11T10:50:25.364Z,99300.16
2022-10-11T10:53:18.332Z,99305.65
2022-10-11T10:56:36.217Z,99310.73
2022-10-11T11:04:48.179Z,99303.55
2022-10-11T11:06:57.339Z,99305.52
2022-10-11T11:10:00.761Z,99300.81
2022-10-11T11:12:41.501Z,99308.49
2022-10-11T11:15:13.330Z,99306.58
2022-10-11T11:17:57.814Z,99300.52
2022-10-11T11:20:32.062Z,99302.88
2022-10-11T11:23:27.441Z,99307.77
2022-10-11T11:26:06.918Z,99312.12
2022-10-11T11:28:57.031Z,99312.58
2022-10-11T11:31:49.112Z,99318.46
2022-10-11T11:34:42.506Z,99315.77
2022-10-11T11:37:28.975Z,99312.79
2022-10-11T11:40:16.633Z,99319.92
2022-10-11T11:42:57.293Z,99322.92
2022-10-11T11:45:28.563Z,99315.53
2022-10-11T11:48:03.692Z,99315.63
2022-10-11T11:50:41.076Z,99325.14
2022-10-11T11:53:16.338Z,99315.83
2022-10-11T11:56:04.560Z,99320.77
2022-10-11T11:58:48.080Z,99329.61
2022-10-11T12:01:31.140Z,99329.70
2022-10-11T12:04:05.508Z,99315.83
2022-10-11T12:06:57.953Z,99315.91
2022-10-11T12:09:25.176Z,99329.57
2022-10-11T12:11:57.690Z,99318.83
2022-10-11T12:14:51.282Z,99325.06
2022-10-11T12:17:25.505Z,99309.99
2022-10-11T12:20:41.913Z,99315.52
2022-10-11T12:23:36.195Z,99313.02
2022-10-11T12:26:34.654Z,99305.21
2022-10-11T12:29:20.803Z,99297.27
2022-10-11T12:32:04.420Z,99293.02
2022-10-11T12:34:33.703Z,99298.27
2022-10-11T12:37:38.824Z,99297.96
2022-10-11T12:40:59.766Z,99295.30
2022-10-11T12:43:47.859Z,99295.16
2022-10-11T12:47:10.131Z,99296.80
2022-10-11T12:50:42.314Z,99291.77
2022-10-11T12:53:27.001Z,99297.32
2022-10-11T12:56:25.350Z,99295.67
2022-10-11T12:59:03.345Z,99294.90
2022-10-11T13:05:31.531Z,99303.98
2022-10-11T13:08:27.860Z,99301.83
2022-10-11T13:11:05.209Z,99301.14
2022-10-11T13:17:00.560Z,99305.27
2022-10-11T13:19:30.091Z,99300.85
2022-10-11T13:22:36.497Z,99295.38
2022-10-11T13:25:54.345Z,99292.23
2022-10-11T13:28:24.417Z,99293.59
2022-10-11T13:30:57.759Z,99290.34
2022-10-11T13:33:34.050Z,99288.38
2022-10-11T13:36:04.262Z,99282.79
2022-10-11T13:38:34.074Z,99282.52
2022-10-11T13:41:06.402Z,99284.41
2022-10-11T13:43:35.106Z,99281.45
2022-10-11T13:46:06.986Z,99280.98
2022-10-11T13:48:41.053Z,99286.83
2022-10-11T13:51:09.668Z,99283.11
2022-10-11T13:53:36.440Z,99286.84
2022-10-11T13:56:07.839Z,99283.19
2022-10-11T13:58:40.537Z,99285.63
2022-10-11T14:01:20.980Z,99287.23
2022-10-11T14:03:54.885Z,99289.53
2022-10-11T14:06:21.795Z,99288.79
2022-10-11T14:08:54.639Z,99288.27
2022-10-11T14:11:39.150Z,99289.14
2022-10-11T14:14:30.257Z,99286.98
2022-10-11T14:17:04.347Z,99283.90
2022-10-11T14:19:31.296Z,99287.38
2022-10-11T14:21:58.217Z,99286.66
2022-10-11T14:24:24.993Z,99281.30
2022-10-11T14:26:54.368Z,99278.63
2022-10-11T14:29:24.056Z,99278.27
2022-10-11T14:31:52.102Z,99279.23
2022-10-11T14:34:21.722Z,99281.20
2022-10-11T14:36:49.207Z,99280.63
2022-10-11T14:39:19.304Z,99280.14
2022-10-11T14:41:47.340Z,99283.64
2022-10-11T14:44:14.944Z,99284.55
2022-10-11T14:46:42.717Z,99283.39
2022-10-11T14:49:15.007Z,99285.61
2022-10-11T14:51:41.973Z,99289.46
2022-10-11T14:54:09.443Z,99290.33
2022-10-11T14:56:36.196Z,99289.30
2022-10-11T14:59:02.997Z,99294.36
2022-10-11T15:01:29.905Z,99291.75
2022-10-11T15:03:56.972Z,99299.09
2022-10-11T15:06:29.022Z,99297.46
2022-10-11T15:08:56.117Z,99297.16
2022-10-11T15:11:24.174Z,99301.01
2022-10-11T15:13:50.904Z,99302.48
2022-10-11T15:16:20.814Z,99308.36
2022-10-11T15:18:51.014Z,99308.64
2022-10-11T15:21:19.549Z,99311.89
2022-10-11T15:23:47.338Z,99321.95
2022-10-11T15:26:18.383Z,99321.58
2022-10-11T15:28:46.085Z,99325.56
2022-10-11T15:31:13.283Z,99324.63
2022-10-11T15:33:40.871Z,99326.74
2022-10-11T15:36:12.320Z,99333.28
2022-10-11T15:38:39.303Z,99339.91
2022-10-11T15:41:06.363Z,99339.70
2022-10-11T15:43:33.599Z,99341.30
2022-10-11T15:46:02.435Z,99344.58
2022-10-11T15:48:29.462Z,99348.35
2022-10-11T15:50:56.509Z,99353.89
2022-10-11T15:53:28.495Z,99361.55
2022-10-11T15:55:57.806Z,99365.32
2022-10-11T15:58:26.599Z,99367.23
2022-10-11T16:00:55.393Z,99368.86
2022-10-11T16:03:24.768Z,99370.48
2022-10-11T16:05:52.640Z,99372.94
2022-10-11T16:08:19.937Z,99377.95
2022-10-11T16:10:46.716Z,99379.38
2022-10-11T16:13:13.527Z,99381.77
2022-10-11T16:15:42.269Z,99380.88
2022-10-11T16:18:12.424Z,99382.08
2022-10-11T16:20:41.036Z,99387.48
2022-10-11T16:23:08.090Z,99388.49
2022-10-11T16:25:35.878Z,99396.45
2022-10-11T16:28:03.582Z,99396.38
2022-10-11T16:30:30.446Z,99400.95
2022-10-11T16:32:57.264Z,99407.56
2022-10-11T16:35:25.483Z,99407.14
2022-10-11T16:37:54.617Z,99405.34
2022-10-11T16:40:22.164Z,99408.83
2022-10-11T16:42:48.986Z,99416.73
2022-10-11T16:45:16.480Z,99414.45
2022-10-11T16:47:44.648Z,99414.28
2022-10-11T16:50:12.311Z,99421.63
2022-10-11T16:52:39.054Z,99419.91
2022-10-11T16:55:06.404Z,99424.13
2022-10-11T16:57:33.167Z,99427.17
2022-10-11T16:59:59.873Z,99430.54
2022-10-11T17:02:32.128Z,99432.38
2022-10-11T17:04:59.507Z,99435.20
2022-10-11T17:07:26.687Z,99438.91
2022-10-11T17:09:53.429Z,99438.33
2022-10-11T17:12:23.487Z,99437.34
2022-10-11T17:14:51.110Z,99440.38
2022-10-11T17:17:19.080Z,99442.59
2022-10-11T17:19:47.513Z,99448.86
2022-10-11T17:22:18.918Z,99448.65
2022-10-11T17:24:46.537Z,99452.60
2022-10-11T17:27:13.720Z,99448.73
2022-10-11T17:29:40.662Z,99448.42
2022-10-11T17:32:07.594Z,99452.00
2022-10-11T17:34:34.556Z,99456.70
2022-10-11T17:37:01.561Z,99459.18
2022-10-11T17:39:28.313Z,99462.40
2022-10-11T17:41:55.109Z,99461.52
2022-10-11T17:44:22.115Z,99466.56
2022-10-11T17:46:49.190Z,99466.94
2022-10-11T17:49:16.113Z,99463.69
2022-10-11T17:51:43.529Z,99463.52
2022-10-11T17:54:12.716Z,99465.88
2022-10-11T17:56:41.383Z,99465.66
2022-10-11T17:59:11.870Z,99469.54
2022-10-11T18:01:38.659Z,99467.73
2022-10-11T18:04:06.304Z,99466.40
2022-10-11T18:06:38.740Z,99471.14
2022-10-11T18:09:06.136Z,99473.87
2022-10-11T18:11:33.111Z,99471.31
2022-10-11T18:14:01.124Z,99474.59
2022-10-11T18:16:30.137Z,99475.59
2022-10-11T18:18:58.045Z,99475.95
2022-10-11T18:21:29.981Z,99478.74
2022-10-11T18:24:03.360Z,99480.39
2022-10-11T18:26:30.834Z,99474.55
2022-10-11T18:28:58.817Z,99477.00
2022-10-11T18:31:29.273Z,99481.38
2022-10-11T18:33:56.361Z,99483.33
2022-10-11T18:36:26.862Z,99480.36
2022-10-11T18:38:57.160Z,99481.40
2022-10-11T18:41:30.721Z,99481.90
2022-10-11T18:44:00.491Z,99480.92
2022-10-11T18:46:27.940Z,99477.71
2022-10-11T18:48:56.773Z,99481.23
2022-10-11T18:51:42.416Z,99483.81
2022-10-11T18:54:13.942Z,99488.14
2022-10-11T18:56:44.558Z,99491.88
2022-10-11T18:59:11.463Z,99488.79
2022-10-11T19:01:41.473Z,99488.70
2022-10-11T19:04:11.126Z,99480.61
2022-10-11T19:06:41.211Z,99487.91
2022-10-11T19:09:11.809Z,99486.94
2022-10-11T19:11:55.343Z,99488.46
2022-10-11T19:14:26.151Z,99486.29
2022-10-11T19:16:54.166Z,99492.28
2022-10-11T19:19:24.219Z,99495.27
2022-10-11T19:21:52.178Z,99492.74
2022-10-11T19:24:21.826Z,99492.92
2022-10-11T19:26:50.475Z,99493.49
2022-10-11T19:29:19.970Z,99492.98
2022-10-11T19:31:49.626Z,99495.33
2022-10-11T19:34:16.965Z,99497.03
2022-10-11T19:36:44.086Z,99501.67
2022-10-11T19:39:15.027Z,99500.27
2022-10-11T19:41:42.162Z,99508.89
2022-10-11T19:44:09.903Z,99508.28
2022-10-11T19:46:53.183Z,99509.41
2022-10-11T19:49:24.067Z,99511.14
2022-10-11T19:51:52.080Z,99510.05
2022-10-11T19:54:18.953Z,99508.94
2022-10-11T19:56:45.786Z,99510.67
2022-10-11T19:59:13.525Z,99508.45
2022-10-11T20:01:41.424Z,99514.04
2022-10-11T20:04:22.677Z,99514.48
2022-10-11T20:06:58.117Z,99521.71
2022-10-11T20:09:29.660Z,99517.73
2022-10-11T20:11:57.828Z,99520.77
2022-10-11T20:14:25.078Z,99518.02
2022-10-11T20:16:52.224Z,99516.20
2022-10-11T20:19:19.650Z,99513.80
2022-10-11T20:21:47.384Z,99517.70
2022-10-11T20:24:14.338Z,99518.60
2022-10-11T20:26:41.462Z,99517.44
2022-10-11T20:29:08.512Z,99524.48
2022-10-11T20:31:38.922Z,99523.16
2022-10-11T20:34:07.374Z,99525.89
2022-10-11T20:36:36.263Z,99525.05
2022-10-11T20:39:05.228Z,99526.10
2022-10-11T20:41:37.078Z,99529.97
2022-10-11T20:44:04.766Z,99531.16
2022-10-11T20:46:34.563Z,99531.64
2022-10-11T20:49:04.152Z,99525.63
2022-10-11T20:51:33.368Z,99531.88
2022-10-11T20:54:02.118Z,99534.59
2022-10-11T20:56:30.055Z,99530.45
2022-10-11T20:58:57.929Z,99518.83
2022-10-11T21:01:27.816Z,99531.71
2022-10-11T21:03:54.960Z,99533.86
2022-10-11T21:06:21.747Z,99537.30
2022-10-11T21:08:48.498Z,99537.79
2022-10-11T21:11:15.230Z,99534.05
2022-10-11T21:13:42.095Z,99530.23
2022-10-11T21:16:12.428Z,99532.63
2022-10-11T21:18:40.158Z,99535.33
2022-10-11T21:21:09.097Z,99536.54
2022-10-11T21:23:36.030Z,99540.84
2022-10-11T21:26:04.353Z,99538.65
2022-10-11T21:28:31.329Z,99539.43
2022-10-11T21:31:15.292Z,99543.30
2022-10-11T21:33:43.471Z,99539.05
2022-10-11T21:36:13.609Z,99538.61
2022-10-11T21:38:40.997Z,99540.80
2022-10-11T21:41:11.713Z,99543.17
2022-10-11T21:43:38.533Z,99547.11
2022-10-11T21:46:15.860Z,99546.02
2022-10-11T21:48:42.809Z,99547.55
2022-10-11T21:51:30.066Z,99547.15
2022-10-11T21:53:59.545Z,99545.64
2022-10-11T21:56:27.536Z,99547.21
2022-10-11T21:58:54.275Z,99546.71
2022-10-11T22:01:21.460Z,99549.92
2022-10-11T22:03:48.755Z,99542.88
2022-10-11T22:06:16.454Z,99543.99
2022-10-11T22:08:43.302Z,99540.98
2022-10-11T22:11:10.848Z,99541.34
2022-10-11T22:13:38.521Z,99539.09
2022-10-11T22:16:06.863Z,99538.59
2022-10-11T22:18:34.117Z,99539.15
2022-10-11T22:21:04.787Z,99539.02
2022-10-11T22:23:31.529Z,99537.30
2022-10-11T22:26:08.175Z,99538.38
2022-10-11T22:28:35.461Z,99536.50
2022-10-11T22:31:02.294Z,99535.66
2022-10-11T22:33:29.079Z,99535.13
2022-10-11T22:35:59.452Z,99542.42
2022-10-11T22:38:27.286Z,99543.88
2022-10-11T22:40:54.979Z,99541.95
2022-10-11T22:43:21.800Z,99543.89
2022-10-11T22:45:48.588Z,99538.71
2022-10-11T22:48:15.402Z,99539.92
2022-10-11T22:50:42.384Z,99544.69
2022-10-11T22:53:12.590Z,99543.45
2022-10-11T22:55:39.919Z,99542.04
2022-10-11T22:58:06.775Z,99543.14
2022-10-11T23:00:34.617Z,99548.30
2022-10-11T23:03:01.404Z,99547.70
2022-10-11T23:05:28.246Z,99551.91
2022-10-11T23:07:55.076Z,99548.67
2022-10-11T23:10:21.892Z,99544.73
2022-10-11T23:12:48.690Z,99553.20
2022-10-11T23:15:15.528Z,99548.12
2022-10-11T23:17:42.838Z,99549.17
2022-10-11T23:20:10.173Z,99550.22
2022-10-11T23:22:37.124Z,99548.60
2022-10-11T23:25:05.150Z,99548.27
2022-10-11T23:27:31.916Z,99547.73
2022-10-11T23:29:58.771Z,99546.15
2022-10-11T23:32:25.579Z,99543.54
2022-10-11T23:34:52.330Z,99546.71
2022-10-11T23:37:19.569Z,99538.83
2022-10-11T23:39:46.390Z,99545.07
2022-10-11T23:42:13.233Z,99545.77
2022-10-11T23:44:40.010Z,99546.82
2022-10-11T23:47:06.815Z,99544.45
2022-10-11T23:49:33.645Z,99546.83
2022-10-11T23:52:00.492Z,99550.42
2022-10-11T23:54:27.326Z,99553.23
2022-10-11T23:56:54.109Z,99548.03
2022-10-11T23:59:20.915Z,99554.22
